Republic, Ohio
Current Conditions -  °F | °C
As of 1:33 PM on Thursday 27 Nov 2014 (Local Time) from KPCW Reporting Station
Overcast Overcast  
Wind Chill: -3°   Ceiling: 3800
Heat Index:   Visibility: 10mi
Dew Point: -3°   Wind: 13mph
Humidity: 70%   Direction: 270°W
Pressure: 30.15"   Gusts: NA
Location:  41.12°N, 83.02°W
Report Text: KPCW 271833Z AUTO 27011KT 10SM SCT032 OVC038 02/M03 A3015 RMK AO2 $
Loading
Personal Weather Stations






























Interactive Weather Map New forecast layout! Learn more

10-Day Weather Forecast

Advertisements
Track Severe Weather on mobile